sensor_id;sensor_type;location;lat;lon;timestamp;P1;durP1;ratioP1;P2;durP2;ratioP2
62151;SDS011;48139;47.474;19.034;2023-08-17T04:06:27;14.93;;;11.25;;
62151;SDS011;48139;47.474;19.034;2023-08-17T04:09:34;14.05;;;9.70;;
62151;SDS011;48139;47.474;19.034;2023-08-17T04:12:36;16.67;;;9.52;;
62151;SDS011;48139;47.474;19.034;2023-08-17T04:15:39;13.73;;;9.45;;
62151;SDS011;48139;47.474;19.034;2023-08-17T04:18:42;14.23;;;9.52;;
62151;SDS011;48139;47.474;19.034;2023-08-17T04:21:45;14.40;;;8.48;;
62151;SDS011;48139;47.474;19.034;2023-08-17T04:24:48;15.35;;;9.77;;
62151;SDS011;48139;47.474;19.034;2023-08-17T04:27:53;14.80;;;10.25;;
62151;SDS011;48139;47.474;19.034;2023-08-17T04:31:02;12.27;;;9.98;;
62151;SDS011;48139;47.474;19.034;2023-08-17T04:34:05;12.15;;;9.32;;
62151;SDS011;48139;47.474;19.034;2023-08-17T04:37:08;13.43;;;9.27;;
62151;SDS011;48139;47.474;19.034;2023-08-17T04:40:12;16.42;;;11.30;;
62151;SDS011;48139;47.474;19.034;2023-08-17T04:43:15;13.93;;;9.82;;
62151;SDS011;48139;47.474;19.034;2023-08-17T04:46:18;12.43;;;9.77;;
62151;SDS011;48139;47.474;19.034;2023-08-17T04:49:22;13.95;;;9.88;;
62151;SDS011;48139;47.474;19.034;2023-08-17T04:55:27;10.10;;;7.10;;
62151;SDS011;48139;47.474;19.034;2023-08-17T04:58:32;15.80;;;8.88;;
62151;SDS011;48139;47.474;19.034;2023-08-17T05:01:44;11.80;;;9.10;;
62151;SDS011;48139;47.474;19.034;2023-08-17T05:04:50;12.63;;;8.68;;
62151;SDS011;48139;47.474;19.034;2023-08-17T05:07:53;12.25;;;8.20;;
62151;SDS011;48139;47.474;19.034;2023-08-17T05:10:56;12.60;;;8.00;;
62151;SDS011;48139;47.474;19.034;2023-08-17T05:14:11;10.05;;;7.20;;
62151;SDS011;48139;47.474;19.034;2023-08-17T05:17:15;12.88;;;8.98;;
62151;SDS011;48139;47.474;19.034;2023-08-17T05:20:18;12.82;;;9.52;;
62151;SDS011;48139;47.474;19.034;2023-08-17T05:23:23;12.23;;;7.60;;
62151;SDS011;48139;47.474;19.034;2023-08-17T05:26:26;11.82;;;7.80;;
62151;SDS011;48139;47.474;19.034;2023-08-17T05:32:32;10.23;;;7.32;;
62151;SDS011;48139;47.474;19.034;2023-08-17T05:35:37;11.77;;;8.02;;
62151;SDS011;48139;47.474;19.034;2023-08-17T05:38:40;11.50;;;8.02;;
62151;SDS011;48139;47.474;19.034;2023-08-17T05:44:46;10.73;;;7.75;;
62151;SDS011;48139;47.474;19.034;2023-08-17T05:47:51;12.82;;;8.73;;
62151;SDS011;48139;47.474;19.034;2023-08-17T05:50:55;15.95;;;9.70;;
62151;SDS011;48139;47.474;19.034;2023-08-17T05:53:58;14.70;;;10.52;;
62151;SDS011;48139;47.474;19.034;2023-08-17T05:57:02;15.05;;;10.02;;
62151;SDS011;48139;47.474;19.034;2023-08-17T06:00:06;12.73;;;9.05;;
62151;SDS011;48139;47.474;19.034;2023-08-17T06:03:13;17.08;;;10.15;;
62151;SDS011;48139;47.474;19.034;2023-08-17T06:06:16;14.40;;;8.82;;
62151;SDS011;48139;47.474;19.034;2023-08-17T06:09:19;16.60;;;10.40;;
62151;SDS011;48139;47.474;19.034;2023-08-17T06:12:22;11.50;;;8.55;;
62151;SDS011;48139;47.474;19.034;2023-08-17T06:18:51;12.35;;;9.57;;
62151;SDS011;48139;47.474;19.034;2023-08-17T06:21:55;12.37;;;8.15;;
62151;SDS011;48139;47.474;19.034;2023-08-17T06:25:00;11.57;;;7.78;;
62151;SDS011;48139;47.474;19.034;2023-08-17T06:28:03;21.98;;;8.55;;
62151;SDS011;48139;47.474;19.034;2023-08-17T06:31:20;12.88;;;8.98;;
62151;SDS011;48139;47.474;19.034;2023-08-17T06:34:55;11.38;;;8.98;;
62151;SDS011;48139;47.474;19.034;2023-08-17T06:39:07;11.35;;;7.57;;
62151;SDS011;48139;47.474;19.034;2023-08-17T06:42:11;10.57;;;7.68;;
62151;SDS011;48139;47.474;19.034;2023-08-17T06:45:16;13.18;;;8.15;;
62151;SDS011;48139;47.474;19.034;2023-08-17T06:48:21;13.35;;;7.43;;
62151;SDS011;48139;47.474;19.034;2023-08-17T06:51:24;11.80;;;7.53;;
62151;SDS011;48139;47.474;19.034;2023-08-17T06:54:34;11.93;;;7.18;;
62151;SDS011;48139;47.474;19.034;2023-08-17T06:57:38;11.70;;;8.35;;
62151;SDS011;48139;47.474;19.034;2023-08-17T07:00:40;13.10;;;7.75;;
62151;SDS011;48139;47.474;19.034;2023-08-17T07:03:46;13.20;;;8.48;;
62151;SDS011;48139;47.474;19.034;2023-08-17T07:06:50;11.70;;;8.32;;
62151;SDS011;48139;47.474;19.034;2023-08-17T07:09:53;13.30;;;8.85;;
62151;SDS011;48139;47.474;19.034;2023-08-17T07:12:55;12.20;;;8.15;;
62151;SDS011;48139;47.474;19.034;2023-08-17T07:15:58;9.40;;;7.22;;
62151;SDS011;48139;47.474;19.034;2023-08-17T07:19:03;13.48;;;7.70;;
62151;SDS011;48139;47.474;19.034;2023-08-17T07:22:15;11.70;;;6.72;;
62151;SDS011;48139;47.474;19.034;2023-08-17T07:25:21;11.20;;;7.00;;
62151;SDS011;48139;47.474;19.034;2023-08-17T07:28:24;10.65;;;6.62;;
62151;SDS011;48139;47.474;19.034;2023-08-17T07:31:27;7.00;;;5.97;;
62151;SDS011;48139;47.474;19.034;2023-08-17T07:34:33;9.98;;;6.62;;
62151;SDS011;48139;47.474;19.034;2023-08-17T07:37:36;9.93;;;6.87;;
62151;SDS011;48139;47.474;19.034;2023-08-17T07:43:41;8.27;;;5.67;;
62151;SDS011;48139;47.474;19.034;2023-08-17T07:46:44;9.75;;;6.40;;
62151;SDS011;48139;47.474;19.034;2023-08-17T07:49:51;10.10;;;5.95;;
62151;SDS011;48139;47.474;19.034;2023-08-17T07:53:18;10.45;;;6.10;;
62151;SDS011;48139;47.474;19.034;2023-08-17T07:56:29;10.80;;;6.85;;
62151;SDS011;48139;47.474;19.034;2023-08-17T07:59:32;9.93;;;6.18;;
62151;SDS011;48139;47.474;19.034;2023-08-17T08:02:35;9.32;;;6.72;;
62151;SDS011;48139;47.474;19.034;2023-08-17T08:05:38;9.63;;;6.87;;
62151;SDS011;48139;47.474;19.034;2023-08-17T08:08:41;10.20;;;6.62;;
62151;SDS011;48139;47.474;19.034;2023-08-17T08:11:44;11.57;;;7.62;;
62151;SDS011;48139;47.474;19.034;2023-08-17T08:17:51;11.00;;;6.80;;
62151;SDS011;48139;47.474;19.034;2023-08-17T08:20:54;9.52;;;6.15;;
62151;SDS011;48139;47.474;19.034;2023-08-17T08:23:58;10.70;;;6.45;;
62151;SDS011;48139;47.474;19.034;2023-08-17T08:27:03;8.57;;;6.60;;
62151;SDS011;48139;47.474;19.034;2023-08-17T08:30:12;8.18;;;5.50;;
62151;SDS011;48139;47.474;19.034;2023-08-17T08:33:18;7.35;;;4.97;;
62151;SDS011;48139;47.474;19.034;2023-08-17T08:36:33;9.55;;;6.68;;
62151;SDS011;48139;47.474;19.034;2023-08-17T08:39:49;8.75;;;4.20;;
62151;SDS011;48139;47.474;19.034;2023-08-17T08:42:56;7.65;;;4.75;;
62151;SDS011;48139;47.474;19.034;2023-08-17T08:45:59;8.48;;;4.55;;
62151;SDS011;48139;47.474;19.034;2023-08-17T08:49:02;7.85;;;4.97;;
62151;SDS011;48139;47.474;19.034;2023-08-17T08:52:08;7.53;;;4.62;;
62151;SDS011;48139;47.474;19.034;2023-08-17T08:55:26;7.97;;;4.85;;
62151;SDS011;48139;47.474;19.034;2023-08-17T08:58:31;6.50;;;4.37;;
62151;SDS011;48139;47.474;19.034;2023-08-17T09:01:37;6.95;;;4.50;;
62151;SDS011;48139;47.474;19.034;2023-08-17T09:04:41;9.23;;;5.28;;
62151;SDS011;48139;47.474;19.034;2023-08-17T09:07:46;9.77;;;5.32;;
62151;SDS011;48139;47.474;19.034;2023-08-17T09:10:50;9.07;;;5.68;;
62151;SDS011;48139;47.474;19.034;2023-08-17T09:13:56;10.45;;;5.87;;
62151;SDS011;48139;47.474;19.034;2023-08-17T09:17:04;8.20;;;5.60;;
62151;SDS011;48139;47.474;19.034;2023-08-17T09:20:08;9.10;;;5.20;;
62151;SDS011;48139;47.474;19.034;2023-08-17T09:23:11;9.43;;;5.40;;
62151;SDS011;48139;47.474;19.034;2023-08-17T09:26:19;7.12;;;4.72;;
62151;SDS011;48139;47.474;19.034;2023-08-17T09:30:08;6.87;;;4.85;;
62151;SDS011;48139;47.474;19.034;2023-08-17T09:33:21;6.53;;;4.65;;
62151;SDS011;48139;47.474;19.034;2023-08-17T09:36:25;7.28;;;4.35;;
62151;SDS011;48139;47.474;19.034;2023-08-17T09:39:28;7.12;;;4.22;;
62151;SDS011;48139;47.474;19.034;2023-08-17T09:42:34;7.72;;;4.47;;
62151;SDS011;48139;47.474;19.034;2023-08-17T09:45:38;10.65;;;5.60;;
62151;SDS011;48139;47.474;19.034;2023-08-17T09:48:43;7.50;;;4.28;;
62151;SDS011;48139;47.474;19.034;2023-08-17T09:51:47;10.25;;;5.07;;
62151;SDS011;48139;47.474;19.034;2023-08-17T09:54:59;7.03;;;4.40;;
62151;SDS011;48139;47.474;19.034;2023-08-17T09:58:10;6.95;;;4.53;;
62151;SDS011;48139;47.474;19.034;2023-08-17T10:01:19;8.15;;;4.65;;
62151;SDS011;48139;47.474;19.034;2023-08-17T10:04:24;8.40;;;4.72;;
62151;SDS011;48139;47.474;19.034;2023-08-17T10:07:30;9.93;;;4.80;;
62151;SDS011;48139;47.474;19.034;2023-08-17T10:10:38;8.07;;;4.35;;
62151;SDS011;48139;47.474;19.034;2023-08-17T10:14:05;6.37;;;3.90;;
62151;SDS011;48139;47.474;19.034;2023-08-17T10:20:21;6.30;;;4.43;;
62151;SDS011;48139;47.474;19.034;2023-08-17T10:23:41;6.95;;;3.95;;
62151;SDS011;48139;47.474;19.034;2023-08-17T10:26:49;7.75;;;4.25;;
62151;SDS011;48139;47.474;19.034;2023-08-17T10:30:02;7.78;;;4.53;;
62151;SDS011;48139;47.474;19.034;2023-08-17T10:33:14;7.73;;;4.70;;
62151;SDS011;48139;47.474;19.034;2023-08-17T10:36:18;7.50;;;4.72;;
62151;SDS011;48139;47.474;19.034;2023-08-17T10:39:23;10.27;;;4.50;;
62151;SDS011;48139;47.474;19.034;2023-08-17T10:42:35;12.85;;;5.18;;
62151;SDS011;48139;47.474;19.034;2023-08-17T10:45:43;7.93;;;5.32;;
62151;SDS011;48139;47.474;19.034;2023-08-17T10:48:54;6.55;;;4.07;;
62151;SDS011;48139;47.474;19.034;2023-08-17T10:52:07;8.07;;;4.62;;
62151;SDS011;48139;47.474;19.034;2023-08-17T10:55:41;5.78;;;3.40;;
62151;SDS011;48139;47.474;19.034;2023-08-17T10:59:09;7.50;;;4.05;;
